KCLE/CLE METAR and TAF weather

Enter ICAO airport designator
Station Type Date Time Source
KCLE METAR 2020/08/14 01:51 UTC NOAA

KCLE 140151Z 04008KT 10SM SCT065 SCT250 26/18 A3007 RMK AO2 SLP175 T02610178


Station Type Date Time Source
KCLE Decoded METAR 2020/08/14 01:51 UTC NOAA

CLEVELAND-HOPKINS INTERNATIONAL , OH, United States (KCLE) 41-24N 081-51W 236M
Aug 13, 2020 - 09:51 PM EDT / 2020.08.14 0151 UTC
Wind: from the NE (040 degrees) at 9 MPH (8 KT):0
Visibility: 10 mile(s):0
Sky conditions: partly cloudy
Temperature: 79.0 F (26.1 C)
Dew Point: 64.0 F (17.8 C)
Relative Humidity: 60%
Pressure (altimeter): 30.07 in. Hg (1018 hPa)
ob: KCLE 140151Z 04008KT 10SM SCT065 SCT250 26/18 A3007 RMK AO2 SLP175 T02610178
cycle: 2

Station Type Date Time Source
KCLE TAF 2020/08/13 21:52 UTC NOAA

TAF
AMD KCLE 132050Z 1321/1424 02010G18KT P6SM FEW060 SCT250
FM140000 05009KT P6SM SCT250
FM141600 06008KT P6SM SCT110

Example: see airport list